Time;durP1;ratioP1;P1;durP2;ratioP2;P2;SDS_P1;SDS_P2;PMS_P1;PMS_P2;Temp;Humidity;BMP_temperature;BMP_pressure;BME280_temperature;BME280_humidity;BME280_pressure;Samples;Min_cycle;Max_cycle;Signal;HPM_P1;HPM_P2
2021/06/22 00:00:34;;;;;;;18.15;5.72;;;;;;;24.98;71.53;99988.18;1818209;77;22232;-64
2021/06/22 00:03:21;;;;;;;19.10;5.25;;;;;;;24.76;72.02;99986.33;1744187;81;21551;-64
2021/06/22 00:05:54;;;;;;;15.25;5.22;;;;;;;24.69;72.31;99984.58;1832362;77;22197;-63
2021/06/22 00:08:27;;;;;;;17.85;5.30;;;;;;;24.74;72.19;99985.08;1852836;77;22166;-65
2021/06/22 00:11:00;;;;;;;17.30;5.92;;;;;;;25.19;70.64;99982.91;1821232;77;22197;-63
2021/06/22 00:13:46;;;;;;;18.10;5.35;;;;;;;25.86;68.12;99978.90;1792997;80;21154;-65
2021/06/22 00:16:19;;;;;;;14.65;5.00;;;;;;;25.03;70.59;99981.94;1826601;77;22169;-64
2021/06/22 00:18:52;;;;;;;13.00;5.67;;;;;;;24.99;70.77;99983.16;1826671;77;22178;-64
2021/06/22 00:21:25;;;;;;;17.17;5.12;;;;;;;24.88;71.23;99976.42;1804988;77;22629;-63
2021/06/22 00:24:12;;;;;;;18.45;6.15;;;;;;;24.82;71.37;99974.21;1761747;81;21574;-65
2021/06/22 00:26:45;;;;;;;16.35;6.15;;;;;;;25.82;68.33;99962.61;1820685;77;22205;-64
2021/06/22 00:29:24;;;;;;;19.85;5.67;;;;;;;26.16;66.86;99961.15;1823284;77;22565;-63
2021/06/22 00:32:10;;;;;;;21.93;6.40;;;;;;;26.09;66.74;99961.27;1731435;83;21225;-64
2021/06/22 00:34:47;;;;;;;17.77;5.67;;;;;;;26.21;66.46;99956.22;1830397;77;22642;-63
2021/06/22 00:37:20;;;;;;;17.52;5.97;;;;;;;26.35;65.87;99960.43;1823357;77;22547;-64
2021/06/22 00:39:53;;;;;;;21.93;6.42;;;;;;;26.38;65.79;99970.96;1790384;77;22229;-64
2021/06/22 00:42:26;;;;;;;18.12;5.58;;;;;;;25.83;67.30;99961.63;1852806;77;22178;-63
2021/06/22 00:45:00;;;;;;;17.50;5.03;;;;;;;26.29;65.92;99963.65;1826734;77;22202;-63
2021/06/22 00:47:46;;;;;;;17.73;5.60;;;;;;;26.41;65.46;99967.16;1754445;81;21127;-64
2021/06/22 00:50:19;;;;;;;13.53;5.40;;;;;;;26.54;65.06;99958.86;1822362;77;22178;-63
2021/06/22 00:52:52;;;;;;;17.85;6.08;;;;;;;26.52;64.99;99961.67;1829981;77;22155;-63
2021/06/22 00:55:29;;;;;;;17.25;5.53;;;;;;;26.48;64.99;99963.44;1838835;77;22237;-63
2021/06/22 00:58:04;;;;;;;18.00;5.45;;;;;;;26.34;65.34;99960.58;1814261;77;22162;-63
2021/06/22 01:00:52;;;;;;;;;;;;;;;26.31;65.28;99967.58;1795203;80;21167;-64
2021/06/22 01:03:25;;;;;;;18.45;6.33;;;;;;;26.34;65.19;99963.28;1814271;77;22167;-63
2021/06/22 01:05:58;;;;;;;16.60;5.92;;;;;;;26.24;65.34;99958.66;1809260;77;22175;-63
2021/06/22 01:08:46;;;;;;;17.92;6.60;;;;;;;26.18;65.40;99960.53;1760012;81;21184;-64
2021/06/22 01:11:20;;;;;;;19.82;6.42;;;;;;;26.23;65.28;99951.55;1808697;77;22206;-63
2021/06/22 01:13:53;;;;;;;16.87;7.03;;;;;;;26.23;65.16;99948.86;1852781;77;22135;-63
2021/06/22 01:16:26;;;;;;;16.25;6.20;;;;;;;26.26;65.02;99945.06;1799669;77;22189;-64
2021/06/22 01:19:14;;;;;;;18.62;6.50;;;;;;;26.22;65.01;99946.31;1792975;80;21134;-65
2021/06/22 01:21:47;;;;;;;20.92;6.70;;;;;;;26.21;65.07;99937.34;1820220;77;22213;-64
2021/06/22 01:24:21;;;;;;;16.60;7.42;;;;;;;26.22;64.91;99930.96;1837266;77;22201;-64
2021/06/22 01:27:07;;;;;;;13.58;6.83;;;;;;;26.19;64.92;99937.97;1761734;81;21609;-65
2021/06/22 01:29:41;;;;;;;12.53;6.37;;;;;;;26.21;64.72;99933.80;1831107;77;22168;-64
2021/06/22 01:32:14;;;;;;;13.38;6.50;;;;;;;26.20;64.62;99936.98;1834434;77;22136;-64
2021/06/22 01:34:47;;;;;;;13.35;6.65;;;;;;;26.18;64.77;99932.20;1818673;77;22241;-63
2021/06/22 01:37:20;;;;;;;17.98;6.67;;;;;;;26.43;63.84;99926.07;1819529;77;22185;-63
2021/06/22 01:39:53;;;;;;;15.70;6.58;;;;;;;26.20;64.32;99918.10;1828176;77;22202;-63
2021/06/22 01:42:26;;;;;;;9.88;5.72;;;;;;;25.38;66.39;99911.41;1838307;77;22142;-63
2021/06/22 01:45:01;;;;;;;15.25;5.92;;;;;;;26.01;64.75;99909.34;1821684;77;22621;-63
2021/06/22 01:47:34;;;;;;;14.03;6.60;;;;;;;26.11;64.19;99907.59;1852814;77;22170;-64
2021/06/22 01:50:08;;;;;;;18.57;6.78;;;;;;;26.09;64.23;99913.60;1825073;77;22199;-63
2021/06/22 01:52:42;;;;;;;9.78;5.83;;;;;;;25.06;67.18;99917.09;1822038;77;22124;-63
2021/06/22 01:55:36;;;;;;;13.90;7.00;;;;;;;24.89;67.72;99908.16;1775495;80;21339;-64
2021/06/22 01:58:14;;;;;;;10.60;5.92;;;;;;;24.85;68.11;99895.92;1834478;77;22156;-63
2021/06/22 02:00:54;;;;;;;14.00;5.87;;;;;;;24.87;68.12;99889.45;1809809;77;22659;-63
2021/06/22 02:03:27;;;;;;;14.07;5.72;;;;;;;24.91;68.03;99892.27;1833686;77;22140;-63
2021/06/22 02:06:14;;;;;;;14.45;6.55;;;;;;;25.68;65.65;99884.27;1728069;82;21173;-64
2021/06/22 02:08:47;;;;;;;11.28;6.47;;;;;;;25.37;66.23;99874.17;1852793;77;22230;-64
2021/06/22 02:11:20;;;;;;;9.13;5.60;;;;;;;25.22;66.67;99876.77;1795427;77;22646;-64
2021/06/22 02:13:53;;;;;;;21.05;6.45;;;;;;;24.99;67.60;99894.80;1827316;77;22163;-64
2021/06/22 02:16:26;;;;;;;8.80;5.40;;;;;;;24.86;68.16;99898.51;1824914;77;22213;-64
2021/06/22 02:19:12;;;;;;;16.48;6.12;;;;;;;25.11;67.79;99899.20;1786761;79;21165;-64
2021/06/22 02:21:45;;;;;;;10.55;5.53;;;;;;;24.89;68.52;99888.84;1820650;77;22170;-63
2021/06/22 02:24:19;;;;;;;12.70;6.58;;;;;;;24.87;68.73;99880.51;1820075;77;22167;-64
2021/06/22 02:26:52;;;;;;;11.95;6.12;;;;;;;24.85;68.78;99873.92;1910121;74;22112;-63
2021/06/22 02:29:25;;;;;;;8.03;5.62;;;;;;;24.87;68.85;99873.31;1823301;77;22174;-63
2021/06/22 02:32:10;;;;;;;11.18;5.75;;;;;;;24.84;68.92;99881.63;1700073;84;21327;-64
2021/06/22 02:34:44;;;;;;;13.72;6.15;;;;;;;24.89;68.98;99882.59;1847980;77;22166;-63
2021/06/22 02:37:17;;;;;;;13.88;6.92;;;;;;;24.90;69.01;99883.83;1841849;77;22586;-63
2021/06/22 02:40:09;;;;;;;15.78;5.75;;;;;;;25.93;65.85;99879.48;1757826;81;21190;-64
2021/06/22 02:42:42;;;;;;;12.43;5.97;;;;;;;25.24;67.72;99881.08;1828486;77;22143;-63
2021/06/22 02:45:16;;;;;;;11.78;5.85;;;;;;;25.05;68.35;99893.84;1841011;77;22205;-63
2021/06/22 02:47:49;;;;;;;9.35;5.75;;;;;;;24.98;68.60;99891.27;1819807;77;22151;-63
2021/06/22 02:50:23;;;;;;;12.53;6.22;;;;;;;25.03;68.38;99890.41;1821668;77;22178;-64
2021/06/22 02:52:56;;;;;;;12.00;5.97;;;;;;;25.05;68.22;99895.19;1833558;77;22616;-63
2021/06/22 02:55:42;;;;;;;10.85;6.05;;;;;;;24.89;68.54;99899.61;1701544;82;21308;-64
2021/06/22 02:58:15;;;;;;;13.50;6.08;;;;;;;24.76;69.11;99896.18;1826529;77;22140;-63
2021/06/22 03:00:48;;;;;;;12.30;5.75;;;;;;;24.89;68.73;99894.70;1814042;77;22202;-63
2021/06/22 03:03:21;;;;;;;9.80;5.90;;;;;;;25.27;67.80;99890.72;1834467;77;22176;-63
2021/06/22 03:05:54;;;;;;;11.40;5.90;;;;;;;24.86;68.85;99895.81;1814796;77;22209;-63
2021/06/22 03:08:28;;;;;;;12.40;6.08;;;;;;;24.92;68.77;99899.36;1834466;77;22176;-62
2021/06/22 03:11:13;;;;;;;11.00;5.42;;;;;;;24.91;68.83;99903.03;1769580;80;21216;-63
2021/06/22 03:13:47;;;;;;;13.72;6.50;;;;;;;24.91;68.93;99904.86;1824476;77;22469;-63
2021/06/22 03:16:20;;;;;;;8.75;5.47;;;;;;;24.93;68.88;99898.86;1826525;77;22206;-62
2021/06/22 03:18:53;;;;;;;9.18;5.28;;;;;;;24.91;68.94;99896.78;1852799;77;22178;-62
2021/06/22 03:21:26;;;;;;;9.70;5.58;;;;;;;24.91;68.75;99894.96;1833046;77;22195;-63
2021/06/22 03:24:01;;;;;;;11.63;5.95;;;;;;;24.83;68.71;99897.88;1812209;77;22166;-63
2021/06/22 03:26:47;;;;;;;13.22;5.62;;;;;;;24.79;68.71;99903.50;1778788;80;21179;-61
2021/06/22 03:29:22;;;;;;;10.90;5.60;;;;;;;24.83;68.66;99906.83;1852897;77;22175;-63
2021/06/22 03:31:55;;;;;;;12.20;5.30;;;;;;;24.86;68.66;99901.67;1823853;77;22563;-63
2021/06/22 03:34:43;;;;;;;9.73;5.40;;;;;;;25.12;68.15;99901.42;1792644;80;21308;-62
2021/06/22 03:37:16;;;;;;;11.60;5.92;;;;;;;26.30;64.53;99891.69;1834508;77;22622;-61
2021/06/22 03:39:49;;;;;;;9.98;5.78;;;;;;;26.49;64.04;99889.59;1824378;77;22182;-63
2021/06/22 03:42:22;;;;;;;15.18;6.58;;;;;;;25.39;67.19;99904.53;1822399;77;22155;-63
2021/06/22 03:45:10;;;;;;;10.80;6.22;;;;;;;25.37;67.33;99913.23;1778271;80;21309;-64
2021/06/22 03:47:43;;;;;;;8.33;5.87;;;;;;;26.10;65.24;99899.61;1852980;77;22175;-63
2021/06/22 03:50:16;;;;;;;27.90;9.65;;;;;;;25.37;67.59;99922.66;1828343;77;22170;-75
2021/06/22 03:53:02;;;;;;;14.58;6.65;;;;;;;26.26;65.09;99910.00;1792235;80;21538;-68
2021/06/22 03:55:36;;;;;;;15.80;7.33;;;;;;;26.47;64.51;99896.48;1805990;77;22210;-66
2021/06/22 03:58:09;;;;;;;17.48;8.90;;;;;;;25.74;66.39;99893.67;1833686;77;22124;-64
2021/06/22 04:00:42;;;;;;;16.95;7.85;;;;;;;25.22;67.98;99911.78;1804609;77;22214;-64
2021/06/22 04:03:16;;;;;;;14.65;8.45;;;;;;;25.17;69.46;99916.72;1823560;77;22134;-65
2021/06/22 04:05:49;;;;;;;12.75;7.50;;;;;;;25.22;69.62;99923.90;1833757;77;22170;-64
2021/06/22 04:08:37;;;;;;;10.13;6.87;;;;;;;25.22;69.87;99928.81;1791698;79;21259;-67
2021/06/22 04:11:10;;;;;;;14.40;7.67;;;;;;;26.16;67.61;99930.13;1810950;77;22198;-65
2021/06/22 04:13:43;;;;;;;14.70;9.88;;;;;;;26.57;66.58;99928.91;1820068;77;22187;-67
2021/06/22 04:16:16;;;;;;;14.68;8.93;;;;;;;25.67;69.91;99947.23;1809492;77;23104;-65
2021/06/22 04:18:49;;;;;;;16.70;9.38;;;;;;;25.62;70.51;99957.02;1813531;77;22606;-67
2021/06/22 04:21:22;;;;;;;12.30;8.93;;;;;;;26.66;67.74;99961.85;1795913;77;22193;-67
2021/06/22 04:34:48;;;;;;;12.65;7.47;;;;;;;26.06;70.00;100030.28;1804194;79;28562;-67
2021/06/22 04:37:22;;;;;;;17.55;8.68;;;;;;;26.97;66.85;100025.34;1833119;77;22134;-68
2021/06/22 04:40:10;;;;;;;15.90;8.25;;;;;;;27.02;65.74;100028.97;1755927;82;21206;-67
2021/06/22 04:42:43;;;;;;;15.28;8.00;;;;;;;26.96;65.32;100037.61;1847178;77;22170;-67
2021/06/22 04:45:16;;;;;;;18.30;8.50;;;;;;;26.00;67.41;100044.30;1852984;77;22605;-65
2021/06/22 04:48:03;;;;;;;12.15;7.12;;;;;;;25.55;69.15;100055.53;1814751;78;21139;-67
2021/06/22 04:50:36;;;;;;;11.83;7.03;;;;;;;26.64;66.33;100056.06;1834470;77;22180;-65
2021/06/22 04:53:12;;;;;;;11.85;7.20;;;;;;;26.04;67.34;100063.29;1823083;77;22210;-65
2021/06/22 04:55:57;;;;;;;12.18;6.60;;;;;;;26.21;66.18;100066.80;1761498;80;21273;-66
2021/06/22 04:58:31;;;;;;;11.63;6.33;;;;;;;25.47;68.81;100076.84;1822379;77;22588;-64
2021/06/22 05:01:04;;;;;;;9.60;5.80;;;;;;;25.23;69.14;100072.38;1834569;77;22172;-66
2021/06/22 05:03:50;;;;;;;11.55;5.97;;;;;;;25.15;69.19;100070.80;1719549;82;21344;-65
2021/06/22 05:06:23;;;;;;;10.08;5.37;;;;;;;25.21;69.34;100055.48;1820068;77;22166;-65
2021/06/22 05:08:56;;;;;;;12.23;6.12;;;;;;;25.30;69.29;100042.64;1810545;77;22222;-64
2021/06/22 05:11:30;;;;;;;10.58;5.58;;;;;;;25.26;69.53;100037.63;1832248;77;22175;-65
2021/06/22 07:38:21;;;;;;;8.05;4.65;;;;;;;28.37;66.87;99984.98;1907091;75;28052;-65
2021/06/22 07:40:54;;;;;;;7.37;4.30;;;;;;;28.54;65.53;99995.56;1841849;77;22166;-65
2021/06/22 07:43:28;;;;;;;8.35;4.45;;;;;;;28.78;64.17;99989.70;1834554;77;22235;-65
2021/06/22 07:46:01;;;;;;;8.90;4.90;;;;;;;27.98;66.11;99996.14;1817063;77;22606;-65
2021/06/22 07:48:34;;;;;;;9.20;4.92;;;;;;;28.77;62.63;99985.28;1852881;77;22175;-65
2021/06/22 07:51:20;;;;;;;9.63;5.15;;;;;;;28.78;63.10;99995.12;1809034;78;21324;-66
2021/06/22 07:53:53;;;;;;;7.37;4.33;;;;;;;29.08;61.75;99995.38;1834533;77;22619;-65
2021/06/22 07:56:26;;;;;;;13.03;5.62;;;;;;;29.13;61.18;99999.02;1816388;77;22214;-65
2021/06/22 07:59:14;;;;;;;9.53;5.20;;;;;;;29.18;60.66;100006.68;1731664;82;21150;-66
2021/06/22 08:01:47;;;;;;;9.50;5.10;;;;;;;29.38;60.77;100011.02;1811970;77;22735;-65
2021/06/22 08:04:21;;;;;;;9.83;5.72;;;;;;;29.47;60.06;100010.64;1834439;77;22168;-66
2021/06/22 08:06:54;;;;;;;9.80;6.37;;;;;;;29.54;59.67;100017.66;1810385;77;22609;-66
2021/06/22 08:09:27;;;;;;;11.18;5.30;;;;;;;29.52;59.06;100017.82;1834704;77;22176;-66
2021/06/22 08:12:01;;;;;;;10.95;5.83;;;;;;;29.52;59.40;100028.66;1808781;77;22218;-65
2021/06/22 08:14:34;;;;;;;9.10;5.15;;;;;;;29.40;59.87;100027.64;1836317;77;22201;-65
2021/06/22 08:17:07;;;;;;;8.78;5.67;;;;;;;29.53;59.81;100029.50;1807314;77;22222;-65
2021/06/22 08:19:40;;;;;;;10.08;4.67;;;;;;;29.61;59.57;100020.60;1824430;77;22186;-65
2021/06/22 08:22:13;;;;;;;8.43;5.10;;;;;;;29.61;59.58;100021.95;1823643;77;22707;-65
2021/06/22 08:24:46;;;;;;;8.25;4.90;;;;;;;29.84;59.23;100023.73;1820062;77;22163;-65
2021/06/22 08:27:19;;;;;;;10.38;5.30;;;;;;;29.83;59.31;100019.31;1804558;77;22226;-65
2021/06/22 08:29:53;;;;;;;8.28;5.00;;;;;;;29.90;59.22;100017.70;1834516;77;22180;-65
2021/06/22 08:32:26;;;;;;;14.47;6.45;;;;;;;29.56;60.16;100029.72;1820741;77;22209;-65
2021/06/22 08:34:59;;;;;;;11.10;5.28;;;;;;;29.02;62.00;100030.34;1827711;77;22159;-65
2021/06/22 08:37:45;;;;;;;11.20;5.35;;;;;;;28.90;61.99;100037.28;1764902;81;21166;-66
2021/06/22 08:40:19;;;;;;;10.15;6.12;;;;;;;28.98;62.23;100031.12;1850058;77;22199;-65
2021/06/22 08:42:52;;;;;;;12.73;5.42;;;;;;;28.94;62.58;100031.92;1834179;77;22204;-65
2021/06/22 08:45:26;;;;;;;9.60;5.70;;;;;;;28.82;63.21;100037.16;1848482;77;22199;-65
2021/06/22 08:48:11;;;;;;;11.93;5.40;;;;;;;28.84;63.33;100041.92;1763706;80;21613;-66
2021/06/22 08:50:45;;;;;;;9.45;5.50;;;;;;;29.03;63.04;100043.72;1828740;77;22222;-65
2021/06/22 08:53:19;;;;;;;8.25;5.20;;;;;;;29.05;62.87;100041.72;1852839;77;22155;-65
2021/06/22 08:55:52;;;;;;;6.22;4.70;;;;;;;29.03;62.96;100038.31;1824391;77;22202;-65
2021/06/22 08:58:25;;;;;;;10.55;5.72;;;;;;;29.05;63.54;100039.53;1808207;77;22195;-65
2021/06/22 09:00:58;;;;;;;14.07;5.72;;;;;;;29.19;63.56;100040.38;1820619;77;22225;-67
2021/06/22 09:03:32;;;;;;;13.08;6.87;;;;;;;29.35;63.25;100044.33;1852847;77;22179;-67
2021/06/22 09:06:05;;;;;;;12.33;6.22;;;;;;;29.57;62.96;100049.05;1839283;77;22229;-65
2021/06/22 09:08:54;;;;;;;10.03;5.70;;;;;;;29.62;62.05;100053.48;1792824;80;21146;-66
2021/06/22 09:11:27;;;;;;;11.45;6.40;;;;;;;29.72;61.60;100057.52;1834276;77;22217;-64
2021/06/22 09:14:02;;;;;;;12.35;6.40;;;;;;;29.66;61.24;100062.55;1834190;77;22659;-65
2021/06/22 09:16:38;;;;;;;12.50;6.12;;;;;;;29.62;61.84;100067.05;1832382;77;22194;-65
2021/06/22 09:19:11;;;;;;;11.63;6.03;;;;;;;29.76;61.36;100073.33;1833882;77;22183;-65
2021/06/22 09:22:17;;;;;;;9.53;5.05;;;;;;;30.05;60.70;100080.97;1787909;80;21183;-66
2021/06/22 09:25:11;;;;;;;13.93;6.20;;;;;;;30.14;59.75;100073.76;1821162;77;22162;-64
2021/06/22 09:27:52;;;;;;;11.57;6.15;;;;;;;30.23;60.59;100080.49;1833078;77;22176;-66
2021/06/22 09:30:45;;;;;;;15.32;6.80;;;;;;;30.54;60.01;100077.86;1830228;77;22172;-65
2021/06/22 09:33:26;;;;;;;12.53;5.25;;;;;;;30.89;59.20;100080.72;1833378;77;22159;-65
2021/06/22 09:36:15;;;;;;;11.78;5.72;;;;;;;31.19;58.02;100081.27;1840823;77;22190;-63
2021/06/22 09:39:07;;;;;;;12.15;5.20;;;;;;;31.36;57.11;100079.48;1779567;80;21312;-64
2021/06/22 09:41:42;;;;;;;13.65;5.25;;;;;;;31.52;55.41;100079.58;1813434;77;22206;-65
2021/06/22 09:44:25;;;;;;;13.80;5.37;;;;;;;31.33;55.67;100068.97;1834390;77;22163;-65
2021/06/22 09:47:00;;;;;;;11.57;5.17;;;;;;;31.42;55.47;100070.69;1824698;77;22217;-64
2021/06/22 09:49:46;;;;;;;15.60;5.70;;;;;;;31.47;55.82;100071.05;1761501;81;21320;-66
2021/06/22 09:52:26;;;;;;;10.60;4.55;;;;;;;31.54;56.08;100064.48;1802314;77;22191;-64
2021/06/22 09:54:59;;;;;;;13.95;4.75;;;;;;;31.93;55.71;100060.36;1834476;77;22592;-65
2021/06/22 09:57:32;;;;;;;20.43;5.70;;;;;;;32.30;55.26;100061.81;1921847;74;22124;-65
2021/06/22 10:00:08;;;;;;;14.43;5.70;;;;;;;32.97;52.85;100055.34;1834107;77;22615;-66
2021/06/22 10:02:50;;;;;;;11.95;4.72;;;;;;;33.04;52.64;100056.36;1834621;77;22203;-64
2021/06/22 10:05:52;;;;;;;14.18;5.60;;;;;;;33.28;51.55;100057.83;1817290;77;22297;-65
2021/06/22 10:08:25;;;;;;;15.15;5.03;;;;;;;33.25;50.48;100048.09;1834498;77;22152;-64
2021/06/22 10:11:30;;;;;;;14.73;5.10;;;;;;;33.18;51.53;100050.69;1784552;80;21143;-65
2021/06/22 10:14:07;;;;;;;11.85;4.97;;;;;;;33.33;51.21;100043.98;1834555;77;22120;-64
2021/06/22 10:16:41;;;;;;;10.93;4.53;;;;;;;33.48;50.13;100039.20;1813084;77;22214;-64
2021/06/22 10:19:26;;;;;;;10.80;4.97;;;;;;;33.59;50.47;100044.23;1734184;81;21329;-65
2021/06/22 10:22:00;;;;;;;10.50;4.22;;;;;;;33.97;49.46;100034.52;1809031;77;22199;-64
2021/06/22 10:24:36;;;;;;;13.32;4.55;;;;;;;34.13;49.04;100033.03;1834429;77;22616;-66
2021/06/22 10:27:17;;;;;;;14.40;5.60;;;;;;;34.27;48.11;100027.81;1775409;77;28107;-64
2021/06/22 10:30:06;;;;;;;11.20;4.42;;;;;;;34.33;48.57;100033.37;1757974;81;21174;-66
2021/06/22 10:32:39;;;;;;;13.05;5.10;;;;;;;34.61;47.99;100027.38;1834542;77;20148;-66
2021/06/22 10:35:14;;;;;;;14.58;5.08;;;;;;;34.90;47.88;100031.18;1833280;77;22208;-64
2021/06/22 10:37:57;;;;;;;18.90;5.80;;;;;;;35.22;47.30;100026.40;1805338;77;28519;-64
2021/06/22 10:40:42;;;;;;;13.25;4.83;;;;;;;35.50;46.56;100035.33;1785284;80;21165;-67
2021/06/22 10:43:16;;;;;;;18.55;4.33;;;;;;;36.11;45.00;100034.13;1852868;77;22178;-67
2021/06/22 10:46:02;;;;;;;12.53;4.80;;;;;;;36.25;44.33;100030.98;1821653;77;22210;-67
2021/06/22 10:48:48;;;;;;;18.45;4.67;;;;;;;36.35;44.81;100032.55;1761795;80;21148;-65
2021/06/22 10:51:44;;;;;;;18.23;4.87;;;;;;;36.87;44.37;100023.08;1817644;77;22289;-68
2021/06/22 10:54:45;;;;;;;19.45;5.42;;;;;;;37.11;42.46;100026.41;1842202;77;22194;-64
2021/06/22 10:57:18;;;;;;;15.23;4.33;;;;;;;37.17;41.80;100026.97;1804912;77;22207;-67
2021/06/22 11:00:04;;;;;;;17.12;4.70;;;;;;;37.15;40.58;100023.58;1819485;77;22207;-65
2021/06/22 11:03:05;;;;;;;22.07;6.30;;;;;;;37.09;40.87;100023.05;1818852;77;38738;-64
2021/06/22 11:05:41;;;;;;;15.23;5.00;;;;;;;37.33;41.47;100020.83;1827425;77;22198;-66
2021/06/22 11:08:26;;;;;;;18.50;5.30;;;;;;;37.67;41.23;100020.99;1852792;77;22166;-65
2021/06/22 11:11:16;;;;;;;17.52;5.55;;;;;;;37.83;40.88;100016.48;1810896;78;21312;-69
2021/06/22 11:13:59;;;;;;;16.87;4.58;;;;;;;38.41;40.63;100008.26;1851347;77;22454;-67
2021/06/22 11:16:33;;;;;;;14.23;4.45;;;;;;;38.56;40.63;100010.78;1815167;77;22671;-65
2021/06/22 11:19:21;;;;;;;12.85;5.20;;;;;;;38.79;39.97;100014.45;1723339;83;21151;-66
2021/06/22 11:21:55;;;;;;;16.25;5.12;;;;;;;39.07;39.91;100010.63;1810244;77;22657;-68
2021/06/22 11:24:29;;;;;;;14.98;4.92;;;;;;;39.24;38.10;100012.88;1821532;77;22615;-65
2021/06/22 11:27:04;;;;;;;15.95;4.83;;;;;;;39.40;38.03;100010.20;1808448;77;22206;-65
2021/06/22 11:29:43;;;;;;;18.12;4.85;;;;;;;39.53;37.95;100007.39;1834520;77;22607;-67
2021/06/22 11:32:28;;;;;;;15.32;4.95;;;;;;;39.90;37.87;100007.31;1804587;77;22222;-68
2021/06/22 11:35:04;;;;;;;21.05;6.12;;;;;;;40.24;37.43;100012.06;1804233;77;28034;-67
2021/06/22 11:37:37;;;;;;;22.33;5.60;;;;;;;40.55;36.60;100007.58;1819064;77;28433;-65
2021/06/22 11:40:23;;;;;;;12.00;4.10;;;;;;;40.59;35.88;100005.50;1787364;80;21458;-66
2021/06/22 11:43:07;;;;;;;18.40;4.85;;;;;;;40.83;36.25;100002.12;1828553;77;22119;-65
2021/06/22 11:45:40;;;;;;;21.27;5.25;;;;;;;40.93;35.78;100010.72;1826992;77;22179;-67
2021/06/22 11:48:13;;;;;;;18.15;5.53;;;;;;;40.88;35.63;100014.69;1834663;77;22175;-67
2021/06/22 11:50:47;;;;;;;13.20;4.75;;;;;;;41.12;36.36;100017.11;1815799;77;22222;-66
2021/06/22 11:53:34;;;;;;;21.52;4.72;;;;;;;41.52;35.89;100016.29;1739607;81;21295;-67
2021/06/22 11:56:12;;;;;;;14.35;5.15;;;;;;;41.86;34.65;100007.88;1838884;77;22264;-66
2021/06/22 11:58:45;;;;;;;12.75;4.58;;;;;;;41.82;33.88;100005.28;1830744;77;22593;-66
2021/06/22 12:01:19;;;;;;;13.32;4.28;;;;;;;41.91;34.60;100013.53;1805016;77;22111;-66
2021/06/22 12:04:06;;;;;;;14.03;3.80;;;;;;;42.08;34.98;100014.80;1761916;81;21182;-67
2021/06/22 12:06:39;;;;;;;20.97;4.70;;;;;;;42.36;34.68;100009.42;1831679;77;22554;-67
2021/06/22 12:09:19;;;;;;;11.85;4.08;;;;;;;42.70;33.98;100013.02;1820127;77;22104;-68
2021/06/22 12:11:55;;;;;;;11.05;3.65;;;;;;;42.88;32.94;100014.83;1807308;77;22158;-68
2021/06/22 12:14:28;;;;;;;16.65;4.62;;;;;;;43.00;32.40;100005.67;1830300;77;22120;-67
2021/06/22 12:17:15;;;;;;;15.83;4.35;;;;;;;42.97;31.06;100009.75;1808608;77;22297;-67
2021/06/22 12:20:02;;;;;;;15.25;4.12;;;;;;;42.58;30.18;100008.88;1761414;80;21139;-67
2021/06/22 12:22:35;;;;;;;20.27;4.72;;;;;;;42.50;31.67;100005.91;1852796;77;22535;-67
2021/06/22 12:25:10;;;;;;;18.82;4.80;;;;;;;42.60;31.92;100008.62;1834133;77;22124;-67
2021/06/22 12:27:55;;;;;;;11.22;3.95;;;;;;;42.69;31.16;100007.70;1834507;77;22104;-68
2021/06/22 12:30:38;;;;;;;16.67;4.92;;;;;;;42.77;32.04;100003.20;1811603;77;28246;-67
2021/06/22 12:33:18;;;;;;;15.05;4.35;;;;;;;42.86;31.34;100003.69;1833744;77;22279;-68
2021/06/22 12:36:07;;;;;;;13.35;4.05;;;;;;;42.99;32.53;100017.83;1728284;82;21177;-69
2021/06/22 12:38:41;;;;;;;13.45;4.00;;;;;;;43.28;32.06;100015.13;1834450;77;22121;-67
2021/06/22 12:41:14;;;;;;;18.30;5.03;;;;;;;43.17;29.26;100021.80;1819199;77;22325;-66
2021/06/22 12:43:50;;;;;;;12.70;3.58;;;;;;;42.89;30.64;100028.97;1834506;77;22294;-66
2021/06/22 12:46:26;;;;;;;12.50;4.10;;;;;;;42.72;29.03;100026.06;1817158;77;22340;-67
2021/06/22 12:49:03;;;;;;;12.07;3.55;;;;;;;42.24;30.87;100026.53;1834358;77;22116;-66
2021/06/22 12:51:49;;;;;;;14.15;3.75;;;;;;;42.07;31.06;100027.77;1740579;81;21193;-65
2021/06/22 12:54:27;;;;;;;15.13;4.70;;;;;;;42.10;30.92;100027.84;1834478;77;22278;-65
2021/06/22 12:57:05;;;;;;;13.32;3.87;;;;;;;41.96;31.23;100029.92;1808780;77;22162;-68
2021/06/22 12:59:46;;;;;;;10.80;4.35;;;;;;;41.74;31.56;100026.32;1827324;77;22065;-66
2021/06/22 13:02:22;;;;;;;12.35;3.15;;;;;;;41.51;31.83;100024.27;1827108;77;22124;-65
2021/06/22 13:04:55;;;;;;;19.00;4.78;;;;;;;41.36;32.44;100024.68;1818875;77;28028;-67
2021/06/22 13:07:31;;;;;;;13.18;3.35;;;;;;;41.33;32.49;100025.97;1820135;77;22580;-66
2021/06/22 13:10:18;;;;;;;13.78;3.80;;;;;;;41.20;30.53;100018.70;1766637;80;21293;-70
2021/06/22 13:12:51;;;;;;;18.95;4.03;;;;;;;40.67;30.59;100021.48;1834433;77;23178;-65
2021/06/22 13:15:31;;;;;;;14.53;3.33;;;;;;;40.44;31.97;100018.27;1830401;77;22250;-71
2021/06/22 13:18:10;;;;;;;16.67;4.03;;;;;;;40.54;31.84;100011.40;1819922;77;28271;-67
2021/06/22 13:20:43;;;;;;;12.23;3.58;;;;;;;40.77;29.66;100013.55;1805380;77;22818;-65
2021/06/22 13:23:29;;;;;;;14.63;4.25;;;;;;;40.79;30.61;100017.44;1731206;82;22286;-67
2021/06/22 13:43:54;;;;;;;15.90;4.03;;;;;;;39.21;30.11;100007.30;1799859;79;28288;-65
2021/06/22 13:46:28;;;;;;;17.98;4.53;;;;;;;38.73;30.71;100001.55;1827456;77;22490;-66
2021/06/22 13:49:02;;;;;;;23.87;6.15;;;;;;;38.41;31.56;100006.89;1834038;77;22203;-65
2021/06/22 13:51:35;;;;;;;14.50;4.90;;;;;;;38.13;34.25;100005.68;1831875;77;22191;-66
2021/06/22 13:54:20;;;;;;;20.95;6.55;;;;;;;37.73;36.26;100005.91;1761027;80;21566;-67
2021/06/22 13:56:53;;;;;;;20.75;6.42;;;;;;;37.19;38.05;100008.95;1825310;77;22419;-64
2021/06/22 13:59:27;;;;;;;23.77;5.80;;;;;;;36.98;38.59;100011.27;1834094;77;22180;-64
2021/06/22 14:02:01;;;;;;;22.42;6.90;;;;;;;36.53;38.50;100012.41;1825857;77;22650;-64
2021/06/22 14:04:34;;;;;;;22.50;6.10;;;;;;;36.50;39.46;100009.20;1834072;77;22223;-65
2021/06/22 14:07:07;;;;;;;22.85;6.25;;;;;;;36.04;40.46;100016.77;1835671;77;22245;-65
2021/06/22 14:09:53;;;;;;;19.45;5.95;;;;;;;35.68;40.99;100017.63;1790716;80;21620;-65
2021/06/22 14:12:26;;;;;;;19.20;6.30;;;;;;;35.46;41.66;100009.86;1837913;77;22229;-65
2021/06/22 14:14:59;;;;;;;21.25;5.67;;;;;;;35.38;41.50;99997.16;1819710;77;22191;-65
2021/06/22 14:17:32;;;;;;;18.70;6.17;;;;;;;35.38;41.81;99998.52;1818701;77;22610;-66
2021/06/22 14:20:07;;;;;;;14.28;4.50;;;;;;;35.43;42.03;99997.42;1834132;77;22204;-65
2021/06/22 14:22:40;;;;;;;14.63;5.45;;;;;;;35.40;42.79;99995.08;1826588;77;22656;-64
2021/06/22 14:25:26;;;;;;;21.07;4.97;;;;;;;35.26;42.88;99990.80;1765948;80;21170;-66
2021/06/22 14:28:00;;;;;;;16.90;4.87;;;;;;;34.86;43.26;99992.13;1811952;77;22214;-65
2021/06/22 14:30:33;;;;;;;16.35;4.55;;;;;;;34.65;44.17;99989.59;1834475;77;22204;-66
2021/06/22 14:33:06;;;;;;;18.27;4.80;;;;;;;34.53;44.70;99985.11;1822789;77;22253;-64
2021/06/22 14:35:40;;;;;;;17.85;5.50;;;;;;;34.54;44.47;99980.81;1822547;77;22210;-64
2021/06/22 14:38:13;;;;;;;17.10;5.30;;;;;;;34.47;44.85;99979.02;1809692;77;22222;-67
2021/06/22 14:40:59;;;;;;;18.32;5.12;;;;;;;34.30;45.32;99979.13;1761026;80;21264;-68
2021/06/22 14:43:32;;;;;;;18.62;4.55;;;;;;;34.28;45.80;99977.63;1805260;77;22545;-66
2021/06/22 14:46:05;;;;;;;15.83;5.35;;;;;;;34.35;45.90;99971.23;1852465;77;22199;-67
2021/06/22 14:48:39;;;;;;;18.17;5.50;;;;;;;34.45;45.76;99977.81;1821497;77;22202;-64
2021/06/22 14:51:12;;;;;;;17.52;5.40;;;;;;;34.44;45.73;99977.98;1829574;77;22156;-65
2021/06/22 14:53:51;;;;;;;15.50;4.45;;;;;;;34.40;46.35;99986.55;1883388;74;22167;-67
2021/06/22 14:56:24;;;;;;;16.23;4.80;;;;;;;34.33;46.73;99994.31;1850161;77;22175;-65
2021/06/22 14:59:09;;;;;;;19.42;5.83;;;;;;;34.09;47.34;100006.62;1817598;78;21264;-67
2021/06/22 15:01:43;;;;;;;20.00;5.97;;;;;;;33.99;47.61;99998.34;1815920;77;22164;-64